Historyczne dane pomiarowe

Dodano dane terminowe – wersja testowa.

Dane z okresu 1951-2019

Wersja bazy: 1.34 [2019-03-16, lista zmian], aktualizacja planowana na 2019-04-15

Dane meteo z obszaru Polski uzyskane na podstawie danych udostępnionych przez Instytut Meteorologii i Gospodarki Wodnej – Państwowy Instytut Badawczy.

 

Wybierz Datę:    

       

TemperaturaWilgotnośćWiatrCiśnienieOpadyŚniegCzas trwania zjawisk
 Stacja t tx tn tng RH VA  wxwx mslp ppp RRR   cm mm wxwxwxwxwxwxwx
1961-08-14 12.3 19.4 6.0--- 4.0 0.7---- 0.0------------
1961-08-13 12.1 15.3 11.0--- 8.0 3.7---- 15.6------------
1961-08-12 18.0 25.3 14.7--- 6.7 3.7---- 24.2------------
1961-08-11 23.3 33.3 17.7--- 0.0 3.3---- 0.0------------
1961-08-10 23.5 32.0 16.5--- 0.0 2.3---- 0.0------------
1961-08-09 22.2 29.5 15.5--- 1.3 0.7---- 6.7------------
1961-08-08 19.6 25.3 16.9--- 4.0 1.0---- 0.0------------
1961-08-07 23.2 31.9 12.5--- 1.3 2.7---- 0.0------------
1961-08-06 22.0 31.4 13.0--- 0.0 1.7---- 0.0------------
1961-08-05 18.8 24.6 13.5--- 4.7 2.7---- 0.0------------
1961-08-04 15.8 21.4 9.0--- 4.7 0.7---- 0.0------------
1961-08-03 16.0 22.0 10.5--- 6.7 0.7---- 2.0------------
1961-08-02 18.0 25.8 8.5--- 1.0 2.3---- 0.0------------
1961-08-01 14.6 21.4 8.0--- 1.3 3.0---- 0.0------------
1961-07-31 13.5 15.3 10.0--- 7.7 1.0---- 3.8------------
1961-07-30 11.1 11.8 10.5--- 8.0 3.7---- 20.7------------
1961-07-29 12.2 19.4 11.3--- 8.0 1.3---- 19.5------------
1961-07-28 20.7 27.0 15.5--- 6.7 2.0---- 26.4------------
1961-07-27 19.0 26.8 9.2--- 2.7 2.7---- 0.0------------
1961-07-26 15.9 22.9 7.5--- 1.0 2.3---- 0.0------------
1961-07-25 11.9 16.3 5.0--- 5.7 1.3---- 0.0------------
1961-07-24 14.3 17.7 12.0--- 6.7 2.3---- 0.0------------
1961-07-23 16.3 20.4 11.0--- 4.7 1.0---- 0.0------------
1961-07-22 14.5 19.4 10.7--- 6.7 0.7---- 3.2------------
1961-07-21 15.3 20.4 8.0--- 8.0 0.0---- 2.8------------
1961-07-20 13.6 17.4 7.7--- 7.7 0.0---- 6.1------------
1961-07-19 14.4 20.4 9.3--- 6.3 1.3---- 6.2------------
1961-07-18 14.4 19.4 6.2--- 4.0 1.7---- 0.0------------
1961-07-17 16.2 21.7 11.0--- 1.7 0.0---- 0.7------------
1961-07-16 17.2 22.4 14.5--- 6.0 2.7---- 5.0------------
1961-07-15 19.5 24.4 10.0--- 6.0 2.7---- 5.9------------
1961-07-14 14.6 20.4 11.5--- 4.7 5.7---- 0.0------------
1961-07-13 20.3 28.3 12.0--- 1.0 2.3---- 5.8------------
1961-07-12 21.0 27.6 11.0--- 2.0 0.7---- 0.0------------
1961-07-11 15.5 22.1 7.8--- 5.3 3.3---- 0.0------------
1961-07-10 13.5 18.4 9.5--- 5.7 3.0---- 8.0------------
1961-07-09 13.7 20.4 7.5--- 5.7 2.7---- 1.0------------
1961-07-08 13.7 20.4 5.0--- 2.0 1.0---- 0.0------------
1961-07-07 12.1 16.3 7.5--- 7.0 1.7---- 0.0------------
1961-07-06 12.4 15.8 5.5--- 5.3 2.3---- 0.0------------
1961-07-05 13.6 19.4 11.8--- 6.7 2.7---- 0.0------------
1961-07-04 21.3 30.1 13.5--- 4.7 5.0---- 4.3------------
1961-07-03 22.0 30.3 10.6--- 0.0 2.0---- 0.0------------
1961-07-02 19.8 27.8 15.4--- 0.0 2.3---- 0.0------------
1961-07-01 19.2 25.8 9.0--- 0.0 2.0---- 0.0------------
1961-06-30 16.9 22.4 6.0--- 0.3 3.3---- 0.0------------
1961-06-29 14.6 20.4 5.9--- 2.7 2.0---- 0.0------------
1961-06-28 13.2 18.6 12.1--- 7.3 3.0---- 5.4------------
1961-06-27 21.3 31.3 13.0--- 2.3 1.3---- 23.9------------
1961-06-26 21.3 29.8 10.6--- 4.7 1.0---- 0.0------------
1961-06-25 20.1 29.3 10.1--- 1.3 0.3---- 0.0------------
1961-06-24 18.3 25.3 15.5--- 1.7 0.7---- 0.0------------
1961-06-23 18.0 22.9 15.0--- 4.3 1.3---- 0.0------------
1961-06-22 18.8 27.3 6.0--- 0.7 0.3---- 3.4------------
1961-06-21 15.3 23.1 6.0--- 0.0 0.0---- 0.0------------
1961-06-20 16.7 25.4 12.8--- 1.3 1.0---- 0.0------------
1961-06-19 20.0 27.3 12.5--- 1.3 2.3---- 0.0------------
1961-06-18 18.0 26.3 7.8--- 0.0 1.0---- 0.0------------
1961-06-17 14.5 22.4 7.5--- 0.0 1.7---- 0.0------------
1961-06-16 12.9 18.9 8.0--- 0.0 0.7---- 0.0------------
462.9 ms

 

Źródłem pochodzenia danych jest Instytut Meteorologii i Gospodarki Wodnej – Państwowy Instytut Badawczy. Dane Instytutu Meteorologii i Gospodarki Wodnej – Państwowego Instytutu Badawczego zostały przetworzone.

Dane źródłowe można odnaleźć na stronie https://dane.imgw.pl